createdAt,value
2018-12-29T00:00:47.040Z,21.63
2018-12-29T00:03:15.639Z,20.10
2018-12-29T00:05:44.510Z,20.50
2018-12-29T00:08:13.090Z,19.33
2018-12-29T00:10:41.736Z,18.90
2018-12-29T00:13:10.296Z,20.20
2018-12-29T00:15:38.944Z,20.27
2018-12-29T00:18:07.518Z,20.80
2018-12-29T00:20:36.424Z,19.40
2018-12-29T00:23:04.987Z,20.27
2018-12-29T00:25:33.719Z,58.10
2018-12-29T00:28:02.285Z,30.80
2018-12-29T00:30:31.173Z,23.13
2018-12-29T00:32:59.733Z,22.30
2018-12-29T00:35:28.647Z,21.57
2018-12-29T00:37:57.217Z,19.33
2018-12-29T00:40:26.207Z,21.33
2018-12-29T00:42:54.780Z,17.60
2018-12-29T00:45:23.433Z,16.17
2018-12-29T00:47:51.988Z,17.87
2018-12-29T00:50:21.267Z,14.47
2018-12-29T00:52:49.839Z,16.90
2018-12-29T00:55:18.485Z,17.67
2018-12-29T00:57:47.050Z,15.80
2018-12-29T01:00:16.017Z,15.13
2018-12-29T01:02:44.694Z,15.93
2018-12-29T01:05:13.594Z,18.00
2018-12-29T01:07:42.151Z,17.40
2018-12-29T01:10:11.177Z,15.73
2018-12-29T01:12:39.741Z,13.77
2018-12-29T01:15:10.103Z,14.57
2018-12-29T01:17:38.729Z,16.27
2018-12-29T01:20:07.437Z,14.77
2018-12-29T01:22:36.001Z,14.50
2018-12-29T01:25:04.814Z,12.07
2018-12-29T01:27:34.109Z,13.57
2018-12-29T01:30:02.679Z,13.80
2018-12-29T01:32:31.595Z,12.47
2018-12-29T01:35:00.197Z,11.53
2018-12-29T01:37:28.975Z,13.67
2018-12-29T01:39:57.521Z,12.57
2018-12-29T01:42:27.190Z,13.43
2018-12-29T01:44:55.766Z,10.60
2018-12-29T01:47:24.538Z,12.60
2018-12-29T01:49:53.102Z,12.87
2018-12-29T01:52:21.754Z,11.13
2018-12-29T01:54:50.328Z,12.90
2018-12-29T01:57:19.216Z,12.17
2018-12-29T01:59:47.771Z,14.07
2018-12-29T02:02:16.432Z,13.10
2018-12-29T02:04:45.224Z,12.43
2018-12-29T02:07:13.804Z,14.13
2018-12-29T02:09:42.593Z,15.20
2018-12-29T02:12:11.162Z,11.67
2018-12-29T02:14:40.172Z,15.03
2018-12-29T02:17:08.739Z,14.17
2018-12-29T02:19:40.830Z,14.80
2018-12-29T02:22:09.393Z,10.90
2018-12-29T02:24:38.134Z,14.00
2018-12-29T02:27:06.710Z,14.13
2018-12-29T02:29:35.771Z,13.80
2018-12-29T02:32:04.341Z,14.13
2018-12-29T02:34:33.001Z,15.43
2018-12-29T02:37:01.560Z,15.07
2018-12-29T02:39:30.206Z,16.20
2018-12-29T02:41:59.235Z,16.50
2018-12-29T02:44:27.875Z,16.70
2018-12-29T02:46:56.435Z,16.27
2018-12-29T02:49:25.471Z,17.63
2018-12-29T02:51:54.035Z,15.40
2018-12-29T02:54:22.917Z,18.20
2018-12-29T02:56:51.485Z,15.60
2018-12-29T02:59:20.405Z,18.07
2018-12-29T03:01:48.970Z,16.27
2018-12-29T03:04:18.197Z,17.47
2018-12-29T03:06:46.766Z,17.63
2018-12-29T03:09:15.774Z,17.63
2018-12-29T03:11:44.343Z,17.83
2018-12-29T03:14:13.239Z,17.57
2018-12-29T03:16:41.796Z,17.70
2018-12-29T03:19:10.711Z,19.57
2018-12-29T03:21:39.273Z,17.07
2018-12-29T03:24:07.928Z,13.40
2018-12-29T03:26:36.979Z,16.90
2018-12-29T03:29:05.622Z,13.63
2018-12-29T03:31:34.186Z,15.90
2018-12-29T03:34:03.233Z,17.63
2018-12-29T03:36:31.811Z,17.30
2018-12-29T03:39:00.817Z,16.07
2018-12-29T03:41:30.791Z,16.53
2018-12-29T03:43:59.431Z,17.20
2018-12-29T03:46:28.032Z,17.07
2018-12-29T03:48:57.194Z,14.27
2018-12-29T03:51:25.757Z,15.00
2018-12-29T03:53:54.580Z,13.50
2018-12-29T03:56:23.134Z,15.10
2018-12-29T03:58:51.932Z,16.80
2018-12-29T04:01:20.500Z,17.53
2018-12-29T04:03:51.882Z,17.73
2018-12-29T04:06:20.446Z,17.00
2018-12-29T04:09:25.572Z,16.80
2018-12-29T04:11:54.150Z,16.90
2018-12-29T04:14:22.784Z,17.83
2018-12-29T04:16:51.339Z,19.67
2018-12-29T04:19:19.980Z,20.07
2018-12-29T04:21:48.548Z,18.00
2018-12-29T04:24:17.191Z,17.73
2018-12-29T04:26:48.676Z,19.73
2018-12-29T04:29:17.739Z,18.00
2018-12-29T04:31:46.296Z,17.10
2018-12-29T04:34:14.951Z,18.60
2018-12-29T04:36:43.507Z,17.80
2018-12-29T04:39:12.171Z,15.57
2018-12-29T04:41:40.992Z,19.00
2018-12-29T04:44:09.651Z,13.53
2018-12-29T04:46:38.208Z,17.90
2018-12-29T04:49:07.231Z,17.13
2018-12-29T04:51:35.817Z,17.97
2018-12-29T04:54:04.531Z,11.20
2018-12-29T04:56:33.098Z,16.43
2018-12-29T04:59:01.769Z,16.57
2018-12-29T05:01:30.324Z,14.47
2018-12-29T05:03:58.883Z,18.50
2018-12-29T05:06:28.103Z,16.53
2018-12-29T05:08:56.663Z,15.57
2018-12-29T05:11:25.808Z,17.90
2018-12-29T05:13:54.362Z,17.70
2018-12-29T05:16:23.385Z,16.90
2018-12-29T05:18:51.948Z,17.10
2018-12-29T05:21:20.615Z,18.20
2018-12-29T05:23:49.183Z,16.37
2018-12-29T05:26:18.260Z,15.33
2018-12-29T05:28:46.825Z,15.97
2018-12-29T05:31:19.049Z,15.20
2018-12-29T05:33:47.599Z,16.07
2018-12-29T05:36:16.243Z,17.13
2018-12-29T05:38:44.795Z,17.00
2018-12-29T05:41:13.407Z,16.53
2018-12-29T05:43:41.961Z,16.33
2018-12-29T05:46:10.595Z,17.70
2018-12-29T05:48:39.161Z,18.93
2018-12-29T05:51:08.057Z,16.57
2018-12-29T05:53:36.613Z,16.33
2018-12-29T05:56:05.195Z,14.63
2018-12-29T05:58:34.059Z,17.40
2018-12-29T06:01:02.638Z,18.20
2018-12-29T06:03:31.283Z,18.23
2018-12-29T06:06:00.195Z,17.37
2018-12-29T06:08:30.330Z,19.00
2018-12-29T06:10:59.007Z,9.77
2018-12-29T06:13:27.649Z,19.13
2018-12-29T06:15:56.201Z,18.57
2018-12-29T06:18:24.865Z,19.80
2018-12-29T06:20:53.427Z,18.77
2018-12-29T06:23:25.279Z,17.00
2018-12-29T06:25:53.854Z,16.60
2018-12-29T06:28:22.659Z,14.57
2018-12-29T06:30:51.223Z,14.73
2018-12-29T06:33:20.211Z,14.20
2018-12-29T06:35:48.789Z,17.07
2018-12-29T06:38:18.004Z,20.03
2018-12-29T06:40:46.577Z,16.00
2018-12-29T06:43:15.229Z,18.10
2018-12-29T06:45:43.817Z,18.30
2018-12-29T06:48:12.461Z,16.40
2018-12-29T06:50:41.125Z,17.90
2018-12-29T06:53:09.700Z,16.13
2018-12-29T06:55:38.695Z,17.27
2018-12-29T06:58:07.270Z,18.10
2018-12-29T07:00:36.179Z,16.27
2018-12-29T07:03:04.863Z,17.70
2018-12-29T07:05:33.516Z,18.20
2018-12-29T07:08:02.479Z,16.60
2018-12-29T07:10:31.047Z,14.97
2018-12-29T07:12:59.938Z,17.20
2018-12-29T07:15:28.491Z,16.00
2018-12-29T07:17:57.135Z,16.00
2018-12-29T07:20:25.767Z,14.37
2018-12-29T07:22:54.401Z,16.20
2018-12-29T07:25:23.030Z,14.70
2018-12-29T07:27:51.675Z,15.30
2018-12-29T07:30:20.232Z,9.67
2018-12-29T07:32:49.299Z,13.87
2018-12-29T07:35:17.935Z,13.27
2018-12-29T07:37:46.591Z,14.03
2018-12-29T07:40:15.158Z,15.80
2018-12-29T07:42:43.722Z,18.13
2018-12-29T07:45:12.395Z,17.20
2018-12-29T07:47:40.958Z,18.50
2018-12-29T07:50:09.796Z,17.17
2018-12-29T07:52:38.388Z,19.73
2018-12-29T07:55:07.042Z,19.67
2018-12-29T07:57:35.609Z,21.30
2018-12-29T08:00:06.171Z,18.57
2018-12-29T08:02:34.733Z,20.17
2018-12-29T08:05:03.451Z,19.40
2018-12-29T08:07:35.470Z,17.83
2018-12-29T08:10:05.866Z,19.70
2018-12-29T08:12:34.606Z,17.80
2018-12-29T08:15:03.324Z,20.23
2018-12-29T08:17:31.891Z,21.87
2018-12-29T08:20:00.980Z,20.40
2018-12-29T08:22:29.544Z,19.53
2018-12-29T08:24:58.190Z,19.33
2018-12-29T08:27:26.833Z,19.67
2018-12-29T08:29:55.488Z,21.13
2018-12-29T08:32:24.056Z,20.77
2018-12-29T08:34:52.718Z,19.90
2018-12-29T08:37:21.286Z,20.07
2018-12-29T08:39:51.505Z,18.87
2018-12-29T08:42:20.403Z,20.70
2018-12-29T08:44:49.089Z,15.00
2018-12-29T08:47:17.658Z,19.60
2018-12-29T08:49:46.429Z,17.73
2018-12-29T08:52:15.000Z,19.40
2018-12-29T08:54:43.848Z,18.30
2018-12-29T08:57:12.418Z,19.30
2018-12-29T08:59:40.973Z,18.60
2018-12-29T09:02:09.639Z,14.53
2018-12-29T09:04:38.202Z,12.80
2018-12-29T09:07:07.543Z,17.20
2018-12-29T09:09:36.109Z,13.60
2018-12-29T09:12:04.885Z,15.63
2018-12-29T09:14:33.457Z,17.27
2018-12-29T09:17:02.134Z,15.67
2018-12-29T09:19:30.713Z,16.13
2018-12-29T09:21:59.327Z,11.10
2018-12-29T09:24:28.245Z,14.70
2018-12-29T09:26:56.813Z,10.97
2018-12-29T09:29:25.476Z,16.50
2018-12-29T09:31:54.044Z,16.33
2018-12-29T09:34:22.997Z,16.03
2018-12-29T09:36:51.633Z,15.30
2018-12-29T09:39:20.209Z,15.90
2018-12-29T09:41:49.263Z,16.60
2018-12-29T09:44:17.944Z,17.60
2018-12-29T09:46:46.508Z,15.67
2018-12-29T09:49:15.081Z,16.73
2018-12-29T09:51:44.195Z,16.17
2018-12-29T09:54:12.780Z,16.97
2018-12-29T09:56:41.994Z,17.23
2018-12-29T09:59:10.555Z,15.80
2018-12-29T10:01:39.189Z,15.27
2018-12-29T10:04:07.771Z,17.87
2018-12-29T10:06:36.427Z,17.07
2018-12-29T10:09:06.461Z,15.93
2018-12-29T10:11:35.111Z,16.10
2018-12-29T10:14:03.691Z,12.87
2018-12-29T10:16:32.501Z,13.37
2018-12-29T10:19:01.066Z,13.40
2018-12-29T10:21:29.718Z,13.80
2018-12-29T10:23:58.281Z,8.90
2018-12-29T10:26:27.124Z,15.70
2018-12-29T10:28:55.699Z,14.70
2018-12-29T10:31:27.689Z,14.80
2018-12-29T10:33:56.247Z,16.07
2018-12-29T10:36:25.005Z,16.00
2018-12-29T10:38:53.529Z,13.47
2018-12-29T10:41:22.216Z,16.80
2018-12-29T10:43:51.226Z,13.30
2018-12-29T10:46:20.110Z,14.97
2018-12-29T10:48:48.682Z,15.60
2018-12-29T10:51:17.240Z,14.60
2018-12-29T10:53:46.559Z,13.83
2018-12-29T10:56:15.124Z,14.87
2018-12-29T10:58:43.851Z,14.77
2018-12-29T11:01:12.509Z,14.10
2018-12-29T11:03:41.081Z,15.53
2018-12-29T11:06:09.645Z,13.43
2018-12-29T11:08:38.579Z,15.17
2018-12-29T11:11:07.231Z,15.40
2018-12-29T11:13:35.830Z,13.40
2018-12-29T11:16:04.569Z,14.77
2018-12-29T11:18:33.524Z,15.50
2018-12-29T11:21:02.574Z,15.07
2018-12-29T11:23:31.515Z,15.63
2018-12-29T11:26:00.092Z,14.80
2018-12-29T11:28:29.090Z,14.57
2018-12-29T11:30:57.643Z,15.77
2018-12-29T11:33:26.862Z,14.27
2018-12-29T11:35:58.347Z,14.47
2018-12-29T11:38:27.001Z,16.23
2018-12-29T11:40:55.641Z,8.90
2018-12-29T11:43:24.287Z,15.43
2018-12-29T11:45:53.208Z,13.90
2018-12-29T11:48:25.126Z,12.63
2018-12-29T11:50:53.695Z,12.17
2018-12-29T11:53:22.337Z,11.93
2018-12-29T11:55:50.901Z,10.70
2018-12-29T11:58:19.550Z,10.77
2018-12-29T12:00:48.124Z,10.80
2018-12-29T12:03:16.697Z,10.27
2018-12-29T12:05:45.721Z,9.60
2018-12-29T12:08:14.286Z,8.50
2018-12-29T12:10:42.940Z,9.20
2018-12-29T12:13:11.601Z,8.67
2018-12-29T12:15:40.164Z,8.70
2018-12-29T12:18:08.805Z,7.50
2018-12-29T12:20:37.435Z,8.00
2018-12-29T12:23:06.333Z,8.47
2018-12-29T12:25:34.907Z,7.53
2018-12-29T12:28:04.181Z,8.47
2018-12-29T12:30:32.756Z,9.33
2018-12-29T12:33:01.431Z,9.13
2018-12-29T12:35:30.049Z,8.17
2018-12-29T12:37:59.252Z,8.50
2018-12-29T12:40:27.949Z,9.83
2018-12-29T12:42:56.513Z,8.50
2018-12-29T12:45:25.840Z,8.80
2018-12-29T12:47:54.402Z,9.00
2018-12-29T12:50:23.299Z,7.13
2018-12-29T12:52:51.861Z,8.40
2018-12-29T12:55:21.067Z,11.87
2018-12-29T12:57:49.644Z,8.50
2018-12-29T13:00:18.660Z,9.90
2018-12-29T13:02:47.224Z,8.60
2018-12-29T13:05:15.947Z,10.10
2018-12-29T13:07:44.506Z,9.70
2018-12-29T13:10:13.475Z,6.30
2018-12-29T13:12:42.045Z,10.37
2018-12-29T13:15:10.611Z,10.90
2018-12-29T13:17:39.866Z,9.57
2018-12-29T13:20:08.508Z,10.20
2018-12-29T13:22:37.260Z,9.50
2018-12-29T13:25:05.900Z,9.37
2018-12-29T13:27:34.815Z,8.40
2018-12-29T13:30:04.049Z,8.03
2018-12-29T13:32:35.658Z,10.37
2018-12-29T13:35:04.767Z,9.90
2018-12-29T13:37:33.867Z,9.30
2018-12-29T13:40:02.445Z,5.60
2018-12-29T13:42:31.150Z,9.70
2018-12-29T13:45:01.063Z,8.80
2018-12-29T13:47:30.653Z,9.23
2018-12-29T13:49:59.218Z,8.40
2018-12-29T13:52:28.432Z,7.30
2018-12-29T13:54:57.002Z,7.17
2018-12-29T13:57:25.712Z,8.00
2018-12-29T13:59:54.268Z,6.60
2018-12-29T14:02:24.301Z,7.83
2018-12-29T14:04:52.866Z,7.10
2018-12-29T14:07:21.977Z,6.43
2018-12-29T14:09:50.542Z,7.97
2018-12-29T14:12:19.186Z,8.10
2018-12-29T14:14:47.742Z,6.80
2018-12-29T14:17:16.419Z,6.90
2018-12-29T14:19:44.976Z,4.57
2018-12-29T14:22:14.094Z,5.97
2018-12-29T14:24:42.734Z,7.77
2018-12-29T14:27:11.394Z,7.80
2018-12-29T14:29:39.954Z,7.30
2018-12-29T14:32:08.608Z,7.33
2018-12-29T14:34:37.563Z,7.03
2018-12-29T14:37:06.252Z,7.70
2018-12-29T14:39:35.303Z,7.63
2018-12-29T14:42:03.878Z,7.67
2018-12-29T14:44:33.182Z,6.80
2018-12-29T14:47:02.047Z,8.57
2018-12-29T14:49:30.687Z,7.50
2018-12-29T14:51:59.252Z,7.40
2018-12-29T14:54:27.959Z,7.97
2018-12-29T14:56:56.524Z,6.30
2018-12-29T14:59:26.014Z,8.13
2018-12-29T15:01:54.585Z,7.67
2018-12-29T15:04:23.293Z,6.97
2018-12-29T15:06:51.877Z,8.07
2018-12-29T15:09:20.545Z,6.80
2018-12-29T15:11:49.205Z,7.87
2018-12-29T15:14:17.759Z,7.10
2018-12-29T15:16:47.329Z,7.70
2018-12-29T15:19:15.995Z,7.40
2018-12-29T15:21:44.547Z,8.27
2018-12-29T15:24:13.491Z,7.20
2018-12-29T15:26:42.127Z,7.20
2018-12-29T15:29:11.275Z,6.70
2018-12-29T15:31:40.135Z,7.30
2018-12-29T15:34:08.715Z,7.90
2018-12-29T15:36:37.781Z,7.47
2018-12-29T15:39:07.469Z,7.00
2018-12-29T15:41:36.029Z,7.63
2018-12-29T15:44:05.441Z,7.97
2018-12-29T15:46:34.335Z,8.23
2018-12-29T15:49:02.905Z,7.73
2018-12-29T15:51:31.732Z,8.13
2018-12-29T15:54:00.314Z,7.40
2018-12-29T15:56:29.677Z,6.80
2018-12-29T15:58:58.242Z,8.23
2018-12-29T16:01:26.897Z,8.30
2018-12-29T16:03:55.492Z,8.90
2018-12-29T16:06:24.115Z,6.80
2018-12-29T16:08:52.684Z,8.10
2018-12-29T16:11:26.267Z,6.30
2018-12-29T16:13:52.288Z,7.03
2018-12-29T16:16:20.845Z,7.60
2018-12-29T16:18:49.482Z,7.50
2018-12-29T16:21:21.388Z,7.47
2018-12-29T16:23:50.342Z,6.03
2018-12-29T16:26:18.905Z,6.50
2018-12-29T16:28:48.056Z,7.83
2018-12-29T16:31:17.233Z,7.63
2018-12-29T16:33:45.802Z,8.00
2018-12-29T16:36:16.106Z,7.93
2018-12-29T16:38:44.695Z,7.03
2018-12-29T16:41:13.339Z,7.60
2018-12-29T16:43:41.900Z,7.43
2018-12-29T16:46:11.134Z,8.70
2018-12-29T16:48:39.703Z,7.80
2018-12-29T16:51:08.363Z,8.37
2018-12-29T16:53:36.937Z,8.17
2018-12-29T16:56:05.603Z,7.40
2018-12-29T16:58:34.193Z,7.90
2018-12-29T17:01:03.498Z,7.27
2018-12-29T17:03:32.055Z,8.23
2018-12-29T17:06:02.384Z,7.90
2018-12-29T17:08:31.087Z,9.30
2018-12-29T17:10:59.752Z,8.73
2018-12-29T17:13:28.300Z,9.30
2018-12-29T17:15:56.976Z,9.20
2018-12-29T17:18:25.542Z,9.40
2018-12-29T17:20:54.449Z,8.67
2018-12-29T17:23:23.003Z,8.73
2018-12-29T17:25:51.647Z,8.43
2018-12-29T17:28:20.213Z,8.60
2018-12-29T17:30:48.863Z,8.40
2018-12-29T17:33:17.421Z,8.40
2018-12-29T17:35:46.098Z,8.20
2018-12-29T17:38:15.069Z,8.00
2018-12-29T17:40:44.107Z,7.67
2018-12-29T17:43:12.681Z,7.50
2018-12-29T17:45:41.730Z,7.87
2018-12-29T17:48:10.440Z,7.00
2018-12-29T17:50:39.013Z,7.63
2018-12-29T17:53:07.677Z,6.57
2018-12-29T17:55:36.445Z,5.10
2018-12-29T17:58:05.011Z,6.27
2018-12-29T18:00:33.576Z,6.60
2018-12-29T18:03:02.357Z,7.00
2018-12-29T18:05:31.337Z,7.23
2018-12-29T18:08:00.093Z,7.57
2018-12-29T18:10:29.068Z,6.80
2018-12-29T18:12:58.108Z,7.70
2018-12-29T18:15:26.675Z,7.60
2018-12-29T18:17:57.209Z,7.10
2018-12-29T18:20:25.520Z,6.80
2018-12-29T18:22:54.234Z,8.60
2018-12-29T18:25:22.803Z,7.07
2018-12-29T18:27:51.466Z,7.13
2018-12-29T18:30:20.026Z,6.53
2018-12-29T18:32:48.765Z,7.20
2018-12-29T18:35:17.346Z,8.20
2018-12-29T18:37:46.141Z,7.30
2018-12-29T18:40:14.711Z,7.60
2018-12-29T18:42:43.651Z,7.37
2018-12-29T18:45:12.336Z,7.73
2018-12-29T18:47:41.401Z,7.77
2018-12-29T18:50:09.971Z,8.07
2018-12-29T18:52:39.083Z,7.00
2018-12-29T18:55:07.920Z,7.80
2018-12-29T18:57:36.547Z,8.03
2018-12-29T19:00:06.921Z,7.00
2018-12-29T19:02:35.647Z,7.40
2018-12-29T19:05:04.961Z,8.03
2018-12-29T19:07:33.559Z,7.40
2018-12-29T19:10:06.145Z,8.97
2018-12-29T19:12:34.786Z,8.23
2018-12-29T19:15:03.359Z,9.90
2018-12-29T19:17:32.547Z,7.73
2018-12-29T19:20:01.582Z,7.70
2018-12-29T19:22:30.573Z,9.27
2018-12-29T19:25:00.317Z,8.80
2018-12-29T19:27:29.206Z,8.20
2018-12-29T19:29:58.469Z,8.00
2018-12-29T19:32:28.938Z,7.60
2018-12-29T19:34:57.565Z,7.20
2018-12-29T19:37:26.145Z,6.17
2018-12-29T19:39:55.472Z,5.90
2018-12-29T19:42:24.028Z,5.93
2018-12-29T19:44:53.049Z,6.87
2018-12-29T19:47:21.955Z,5.23
2018-12-29T19:49:53.776Z,6.50
2018-12-29T19:52:21.042Z,7.27
2018-12-29T19:54:49.609Z,7.00
2018-12-29T19:57:18.867Z,5.87
2018-12-29T19:59:48.234Z,7.40
2018-12-29T20:02:17.200Z,7.13
2018-12-29T20:04:46.479Z,5.57
2018-12-29T20:07:15.332Z,6.10
2018-12-29T20:09:44.369Z,6.57
2018-12-29T20:12:12.923Z,5.83
2018-12-29T20:14:41.608Z,6.73
2018-12-29T20:17:10.171Z,6.53
2018-12-29T20:19:38.882Z,6.57
2018-12-29T20:22:07.956Z,8.40
2018-12-29T20:24:36.740Z,8.50
2018-12-29T20:27:07.264Z,8.50
2018-12-29T20:29:35.517Z,7.07
2018-12-29T20:32:04.280Z,8.30
2018-12-29T20:34:33.132Z,7.70
2018-12-29T20:37:02.350Z,7.00
2018-12-29T20:39:30.928Z,7.70
2018-12-29T20:41:59.554Z,6.23
2018-12-29T20:44:28.118Z,5.63
2018-12-29T20:46:57.268Z,6.93
2018-12-29T20:49:25.835Z,6.90
2018-12-29T20:51:54.746Z,6.33
2018-12-29T20:54:23.328Z,7.30
2018-12-29T20:56:51.950Z,6.87
2018-12-29T20:59:20.533Z,5.53
2018-12-29T21:01:49.678Z,6.17
2018-12-29T21:04:18.236Z,5.37
2018-12-29T21:06:46.882Z,5.97
2018-12-29T21:09:15.494Z,5.73
2018-12-29T21:12:03.679Z,4.80
2018-12-29T21:14:32.308Z,3.47
2018-12-29T21:17:00.962Z,4.93
2018-12-29T21:19:29.519Z,5.90
2018-12-29T21:21:58.170Z,5.33
2018-12-29T21:24:26.929Z,4.90
2018-12-29T21:26:55.793Z,4.63
2018-12-29T21:29:24.437Z,5.33
2018-12-29T21:31:53.085Z,4.30
2018-12-29T21:34:21.756Z,3.60
2018-12-29T21:36:50.424Z,2.80
2018-12-29T21:39:19.274Z,3.10
2018-12-29T21:41:48.049Z,3.70
2018-12-29T21:44:16.574Z,4.07
2018-12-29T21:46:45.586Z,3.47
2018-12-29T21:49:14.145Z,3.53
2018-12-29T21:51:42.928Z,4.23
2018-12-29T21:54:11.484Z,3.97
2018-12-29T21:56:40.436Z,4.30
2018-12-29T21:59:09.078Z,2.97
2018-12-29T22:01:37.633Z,3.80
2018-12-29T22:04:06.284Z,3.67
2018-12-29T22:06:35.227Z,3.00
2018-12-29T22:09:06.460Z,4.20
2018-12-29T22:11:35.027Z,3.30
2018-12-29T22:14:03.995Z,3.13
2018-12-29T22:16:32.569Z,3.83
2018-12-29T22:19:01.713Z,2.97
2018-12-29T22:21:30.275Z,3.43
2018-12-29T22:23:58.932Z,2.10
2018-12-29T22:26:27.611Z,3.17
2018-12-29T22:28:56.176Z,3.20
2018-12-29T22:31:24.932Z,2.10
2018-12-29T22:33:53.483Z,2.00
2018-12-29T22:36:22.369Z,2.27
2018-12-29T22:38:51.017Z,1.90
2018-12-29T22:41:19.582Z,2.17
2018-12-29T22:43:48.221Z,1.70
2018-12-29T22:46:17.753Z,2.27
2018-12-29T22:48:48.263Z,1.87
2018-12-29T22:51:16.837Z,1.40
2018-12-29T22:53:45.401Z,2.03
2018-12-29T22:56:14.052Z,2.10
2018-12-29T22:58:43.207Z,2.20
2018-12-29T23:01:11.768Z,1.83
2018-12-29T23:03:40.481Z,1.83
2018-12-29T23:06:09.186Z,1.37
2018-12-29T23:08:37.756Z,1.50
2018-12-29T23:11:06.887Z,1.40
2018-12-29T23:13:35.448Z,1.23
2018-12-29T23:16:04.179Z,1.37
2018-12-29T23:18:32.812Z,1.57
2018-12-29T23:21:01.892Z,1.70
2018-12-29T23:23:30.468Z,1.70
2018-12-29T23:25:59.619Z,1.00
2018-12-29T23:28:28.191Z,1.50
2018-12-29T23:30:57.163Z,2.03
2018-12-29T23:33:25.855Z,1.83
2018-12-29T23:35:54.571Z,1.67
2018-12-29T23:38:23.129Z,1.77
2018-12-29T23:40:53.885Z,1.90
2018-12-29T23:43:22.439Z,1.30
2018-12-29T23:45:51.091Z,1.50
2018-12-29T23:48:21.301Z,1.80
2018-12-29T23:50:49.863Z,1.63
2018-12-29T23:53:18.510Z,1.80
2018-12-29T23:55:47.478Z,1.90
2018-12-29T23:58:16.322Z,2.30
